Map

Track Data

SID SEASON NUMBER BASIN SUBBASIN NAME ISO_TIME NATURE LAT LON WMO_WIND WMO_PRES WMO_AGENCY TRACK_TYPE DIST2LAND LANDFALL IFLAG USA_AGENCY USA_ATCF_ID USA_LAT USA_LON USA_RECORD USA_STATUS USA_WIND USA_PRES USA_SSHS USA_R34_NE USA_R34_SE USA_R34_SW USA_R34_NW USA_R50_NE USA_R50_SE USA_R50_SW USA_R50_NW USA_R64_NE USA_R64_SE USA_R64_SW USA_R64_NW USA_POCI USA_ROCI USA_RMW USA_EYE TOKYO_LAT TOKYO_LON TOKYO_GRADE TOKYO_WIND TOKYO_PRES TOKYO_R50_DIR TOKYO_R50_LONG TOKYO_R50_SHORT TOKYO_R30_DIR TOKYO_R30_LONG TOKYO_R30_SHORT TOKYO_LAND CMA_LAT CMA_LON CMA_CAT CMA_WIND CMA_PRES HKO_LAT HKO_LON HKO_CAT HKO_WIND HKO_PRES NEWDELHI_LAT NEWDELHI_LON NEWDELHI_GRADE NEWDELHI_WIND NEWDELHI_PRES NEWDELHI_CI NEWDELHI_DP NEWDELHI_POCI REUNION_LAT REUNION_LON REUNION_TYPE REUNION_WIND REUNION_PRES REUNION_TNUM REUNION_CI REUNION_RMW REUNION_R34_NE REUNION_R34_SE REUNION_R34_SW REUNION_R34_NW REUNION_R50_NE REUNION_R50_SE REUNION_R50_SW REUNION_R50_NW REUNION_R64_NE REUNION_R64_SE REUNION_R64_SW REUNION_R64_NW BOM_LAT BOM_LON BOM_TYPE BOM_WIND BOM_PRES BOM_TNUM BOM_CI BOM_RMW BOM_R34_NE BOM_R34_SE BOM_R34_SW BOM_R34_NW BOM_R50_NE BOM_R50_SE BOM_R50_SW BOM_R50_NW BOM_R64_NE BOM_R64_SE BOM_R64_SW BOM_R64_NW BOM_ROCI BOM_POCI BOM_EYE BOM_POS_METHOD BOM_PRES_METHOD NADI_LAT NADI_LON NADI_CAT NADI_WIND NADI_PRES WELLINGTON_LAT WELLINGTON_LON WELLINGTON_WIND WELLINGTON_PRES DS824_LAT DS824_LON DS824_STAGE DS824_WIND DS824_PRES TD9636_LAT TD9636_LON TD9636_STAGE TD9636_WIND TD9636_PRES TD9635_LAT TD9635_LON TD9635_WIND TD9635_PRES TD9635_ROCI NEUMANN_LAT NEUMANN_LON NEUMANN_CLASS NEUMANN_WIND NEUMANN_PRES MLC_LAT MLC_LON MLC_CLASS MLC_WIND MLC_PRES USA_GUST BOM_GUST BOM_GUST_PER REUNION_GUST REUNION_GUST_PER USA_SEAHGT USA_SEARAD_NE USA_SEARAD_SE USA_SEARAD_SW USA_SEARAD_NW STORM_SPEED STORM_DIR
1964006S13137 1964 3 SP EA AUDREY 1964-01-06 00:00:00 TS -13.1000 136.900 main 24 24 O________O____ jtwc_sh SH071964 -13.1000 136.900 -1 -13.1000 136.900 TC 10 61
1964006S13137 1964 3 SP EA AUDREY 1964-01-06 03:00:00 TS -12.8602 137.350 main 73 68 P________P____ SH071964 -12.8602 137.350 -1 -12.8602 137.350 TC 9 60
1964006S13137 1964 3 SP EA AUDREY 1964-01-06 06:00:00 TS -12.6714 137.671 main 88 83 O________OO___ jtwc_sh SH071964 -12.6000 137.800 -1 -12.6000 137.800 TC -13.1000 136.900 2 10 58
1964006S13137 1964 3 SP EA AUDREY 1964-01-06 09:00:00 TS -12.3535 138.182 main 130 130 P________PP___ SH071964 -12.3073 138.262 -1 -12.3073 138.262 TC -12.5387 137.861 2 13 59
1964006S13137 1964 3 SP EA AUDREY 1964-01-06 12:00:00 TS -12.0000 138.800 main 198 198 O________OO___ jtwc_sh SH071964 -12.0000 138.800 -1 -12.0000 138.800 TC -12.0000 138.800 2 15 62
1964006S13137 1964 3 SP EA AUDREY 1964-01-06 15:00:00 TS -11.6378 139.540 main 248 182 P________PP___ SH071964 -11.7000 139.462 -1 -11.7000 139.462 TC -11.5133 139.694 2 16 65
1964006S13137 1964 3 SP EA AUDREY 1964-01-06 18:00:00 TS -11.3069 140.302 main 182 120 O________OP___ jtwc_sh SH071964 -11.4000 140.200 -1 -11.4000 140.200 TC -11.1206 140.505 2 16 66
1964006S13137 1964 3 SP EA AUDREY 1964-01-06 21:00:00 TS -10.9677 141.070 main 109 69 P________PP___ SH071964 -11.0178 141.010 -1 -11.0178 141.010 TC -10.8675 141.188 2 16 66
1964006S13137 1964 3 SP EA AUDREY 1964-01-06 23:00:00 TS -10.7765 141.515 1000 bom main 69 55 P_____O__PP___ SH071964 -10.8373 141.499 -1 -10.2000 141.500 1000 -10.8373 141.499 TC -10.7991 141.551 2 14 65
1964006S13137 1964 3 SP EA AUDREY 1964-01-07 00:00:00 TS -10.6697 141.708 main 55 35 O_____P__OO_O_ jtwc_sh SH071964 -10.8000 141.700 -1 -10.3073 141.761 999 -10.8000 141.700 TC -10.8000 141.700 2 -10.2000 141.700 TC 30 1000 10 82
1964006S13137 1964 3 SP EA AUDREY 1964-01-07 02:00:00 TS -10.7094 142.014 999 bom main 35 31 P_____O__PP_P_ SH071964 -10.8578 142.009 -1 -10.5000 142.200 999 -10.8578 142.009 TC -10.8971 141.982 2 -10.3414 141.985 TC 30 999 8 100
1964006S13137 1964 3 SP EA AUDREY 1964-01-07 03:00:00 TS -10.7460 142.127 main 31 0 P_____P__PP_P_ SH071964 -10.9373 142.120 -1 -10.5760 142.341 999 -10.9373 142.120 TC -10.9822 142.093 2 -10.4102 142.115 TC 30 999 6 134
1964006S13137 1964 3 SP EA AUDREY 1964-01-07 06:00:00 TS -10.9894 142.313 main 0 0 O_____P__OP_O_ jtwc_sh SH071964 -11.3000 142.300 -1 -10.7323 142.468 999 -11.3000 142.300 TC -11.3408 142.308 2 -10.6000 142.400 TC 30 999 6 158
1964006S13137 1964 3 SP EA AUDREY 1964-01-07 09:00:00 TS -11.2816 142.348 main 0 0 P_____P__PP_P_ SH071964 -11.7423 142.370 -1 -10.8323 142.329 999 -11.7423 142.370 TC -11.7791 142.344 2 -10.7574 142.468 TC 32 999 6 185
1964006S13137 1964 3 SP EA AUDREY 1964-01-07 11:00:00 TS -11.4800 142.281 999 bom main 0 0 P_____O__PP_P_ SH071964 -12.0565 142.286 -1 -10.9000 142.200 999 -12.0565 142.286 TC -12.0677 142.268 2 -10.8526 142.430 TC 34 999 6 202
1964006S13137 1964 3 SP EA AUDREY 1964-01-07 12:00:00 TS -11.5743 142.230 main 0 0 O_____P__OO_O_ jtwc_sh SH071964 -12.2000 142.200 -1 -10.9456 142.179 999 -12.2000 142.200 TC -12.2000 142.200 2 -10.9000 142.400 TC 35 999 7 222
1964006S13137 1964 3 SP EA AUDREY 1964-01-07 15:00:00 TS -11.8185 141.969 main 0 0 P_____P__PP_P_ SH071964 -12.5452 141.760 -1 -11.0904 142.083 999 -12.5452 141.760 TC -12.5352 141.818 2 -11.0425 142.322 TC 32 999 7 231
1964006S13137 1964 3 SP EA AUDREY 1964-01-07 17:00:00 TS -11.9635 141.739 999 bom main 15 15 P_____O__PP_P_ SH071964 -12.7251 141.385 -1 -11.2000 142.000 999 -12.7251 141.385 TC -12.7356 141.469 2 -11.1443 142.244 TC 30 999 8 238
1964006S13137 1964 3 SP EA AUDREY 1964-01-07 18:00:00 TS -12.0316 141.622 main 24 15 O_____P__OP_O_ jtwc_sh SH071964 -12.8000 141.200 -1 -11.2650 141.953 998 -12.8000 141.200 TC -12.8243 141.282 2 -11.2000 142.200 TC 30 999 8 238
1964006S13137 1964 3 SP EA AUDREY 1964-01-07 21:00:00 TS -12.2370 141.287 main 43 43 P_____P__PP_P_ SH071964 -13.0251 140.683 -1 -11.4734 141.796 998 -13.0251 140.683 TC -13.0260 140.730 2 -11.4150 142.043 TC 32 998 7 240
1964006S13137 1964 3 SP EA AUDREY 1964-01-07 23:00:00 TS -12.3319 141.099 998 bom main 63 63 P_____O__PP_P_ SH071964 -13.0979 140.402 -1 -11.6000 141.700 998 -13.0979 140.402 TC -13.0919 140.421 2 -11.5478 141.941 TC 34 998 6 244
1964006S13137 1964 3 SP EA AUDREY 1964-01-08 00:00:00 TS -12.3577 141.028 main 68 68 O_____P__OO_O_ jtwc_sh SH071964 -13.1000 140.300 -1 -11.6460 141.665 997 -13.1000 140.300 TC -13.1000 140.300 2 -11.6000 141.900 TC 35 998 3 269
1964006S13137 1964 3 SP EA AUDREY 1964-01-08 03:00:00 TS -12.3351 140.920 main 83 83 P_____P__PP_P_ SH071964 -12.9599 140.167 -1 -11.7444 141.590 997 -12.9599 140.167 TC -12.9874 140.128 2 -11.6650 141.835 TC 35 997 2 316
1964006S13137 1964 3 SP EA AUDREY 1964-01-08 06:00:00 TS -12.2366 140.905 main 87 87 O_____P__OP_O_ jtwc_sh SH071964 -12.7000 140.200 -1 -11.8053 141.547 996 -12.7000 140.200 TC -12.7541 140.102 2 -11.7000 141.800 TC 35 997 2 0
1964006S13137 1964 3 SP EA AUDREY 1964-01-08 09:00:00 TS -12.1399 140.915 main 87 76 P_____P__PP_P_ SH071964 -12.4499 140.240 -1 -11.8569 141.519 996 -12.4499 140.240 TC -12.4688 140.200 2 -11.7925 141.750 TC 35 996 2 16
1964006S13137 1964 3 SP EA AUDREY 1964-01-08 11:00:00 TS -12.0797 140.952 996 bom main 76 76 P_____O__PP_P_ SH071964 -12.2802 140.330 -1 -11.9000 141.500 996 -12.2802 140.330 TC -12.2835 140.323 2 -11.8640 141.717 TC 35 996 2 41
1964006S13137 1964 3 SP EA AUDREY 1964-01-08 12:00:00 TS -12.0550 140.980 main 76 69 O_____P__OO_O_ jtwc_sh SH071964 -12.2000 140.400 -1 -11.9300 141.482 995 -12.2000 140.400 TC -12.2000 140.400 2 -11.9000 141.700 TC 35 996 3 60
1964006S13137 1964 3 SP EA AUDREY 1964-01-08 15:00:00 TS -11.9906 141.110 main 69 48 P_____P__PP_P_ SH071964 -11.9701 140.713 -1 -12.0291 141.428 994 -11.9701 140.713 TC -11.9656 140.710 2 -11.9925 141.650 TC 37 995 3 72
1964006S13137 1964 3 SP EA AUDREY 1964-01-08 18:00:00 TS -11.9621 141.278 main 48 39 O_____P__OP_O_ jtwc_sh SH071964 -11.8000 141.100 -1 -12.1466 141.375 993 -11.8000 141.100 TC -11.7708 141.101 2 -12.1000 141.600 TC 40 994 3 87
1964006S13137 1964 3 SP EA AUDREY 1964-01-08 21:00:00 TS -11.9759 141.448 main 39 31 P_____P__PP_P_ SH071964 -11.6751 141.488 -1 -12.2886 141.328 992 -11.6751 141.488 TC -11.6656 141.491 2 -12.2350 141.550 TC 42 993 3 105
1964006S13137 1964 3 SP EA AUDREY 1964-01-08 23:00:00 TS -12.0309 141.544 992 bom main 31 15 P_____O__PP_P_ SH071964 -11.6689 141.712 -1 -12.4000 141.300 992 -11.6689 141.712 TC -11.6699 141.711 2 -12.3417 141.517 TC 44 992 3 127
1964006S13137 1964 3 SP EA AUDREY 1964-01-09 00:00:00 TS -12.0769 141.582 main 15 10 O_____P__OO_O_ jtwc_sh SH071964 -11.7000 141.800 -1 -12.4616 141.290 992 -11.7000 141.800 TC -11.7000 141.800 2 -12.4000 141.500 TC 45 992 4 160
1964006S13137 1964 3 SP EA AUDREY 1964-01-09 03:00:00 TS -12.2937 141.644 main 10 0 P_____P__PP_P_ SH071964 -11.9249 141.960 -1 -12.6684 141.264 992 -11.9249 141.960 TC -11.9553 141.967 2 -12.5850 141.443 TC 45 992 5 172
1964006S13137 1964 3 SP EA AUDREY 1964-01-09 06:00:00 TS -12.5951 141.655 main 0 0 O_____P__OP_O_ jtwc_sh SH071964 -12.3000 142.000 -1 -12.8985 141.243 992 -12.3000 142.000 TC -12.3445 142.037 2 -12.8000 141.400 TC 45 992 7 179
1964006S13137 1964 3 SP EA AUDREY 1964-01-09 09:00:00 TS -12.9448 141.644 main 10 0 P_____P__PP_P_ SH071964 -12.7650 142.003 -1 -13.1395 141.220 992 -12.7650 142.003 TC -12.7866 142.014 2 -13.0500 141.400 TC 45 992 7 184
1964006S13137 1964 3 SP EA AUDREY 1964-01-09 11:00:00 TS -13.1755 141.609 992 bom main 10 10 P_____O__PP_P_ SH071964 -13.0707 141.947 -1 -13.3000 141.200 992 -13.0707 141.947 TC -13.0704 141.948 2 -13.2198 141.403 TC 45 992 7 189
1964006S13137 1964 3 SP EA AUDREY 1964-01-09 12:00:00 TS -13.2790 141.582 main 10 10 O_____P__OO_O_ jtwc_sh SH071964 -13.2000 141.900 -1 -13.3738 141.190 991 -13.2000 141.900 TC -13.2000 141.900 2 -13.3000 141.400 TC 45 992 5 204
1964006S13137 1964 3 SP EA AUDREY 1964-01-09 15:00:00 TS -13.4991 141.465 main 10 10 P_____P__PP_P_ SH071964 -13.4300 141.687 -1 -13.5945 141.157 990 -13.4300 141.687 TC -13.4194 141.727 2 -13.5000 141.358 TC 45 991 5 213
1964006S13137 1964 3 SP EA AUDREY 1964-01-09 18:00:00 TS -13.6941 141.303 main 31 24 O_____P__OP_O_ jtwc_sh SH071964 -13.6000 141.400 -1 -13.8170 141.114 989 -13.6000 141.400 TC -13.6050 141.469 2 -13.7000 141.300 TC 45 990 5 218
1964006S13137 1964 3 SP EA AUDREY 1964-01-09 21:00:00 TS -13.9129 141.129 main 43 43 P_____P__PP_P_ SH071964 -13.8050 141.115 -1 -14.0443 141.053 988 -13.8050 141.115 TC -13.8131 141.152 2 -13.9425 141.257 TC 47 989 6 217
1964006S13137 1964 3 SP EA AUDREY 1964-01-09 23:00:00 TS -14.0831 140.998 988 bom main 58 58 P_____O__PP_P_ SH071964 -13.9855 140.908 -1 -14.2000 141.000 988 -13.9855 140.908 TC -13.9921 140.919 2 -14.1140 141.222 TC 49 988 7 216
1964006S13137 1964 3 SP EA AUDREY 1964-01-10 00:00:00 TS -14.1798 140.929 main 72 68 O_____P__OO_O_ jtwc_sh SH071964 -14.1000 140.800 -1 -14.2787 140.973 987 -14.1000 140.800 TC -14.1000 140.800 2 -14.2000 141.200 TC 50 988 8 212
1964006S13137 1964 3 SP EA AUDREY 1964-01-10 03:00:00 TS -14.5306 140.711 main 86 86 P_____P__PP_P_ SH071964 -14.5550 140.465 -1 -14.5199 140.879 987 -14.5550 140.465 TC -14.5632 140.454 2 -14.4500 141.115 TC 50 987 9 211
1964006S13137 1964 3 SP EA AUDREY 1964-01-10 06:00:00 TS -14.9270 140.465 main 116 116 O_____P__OP_O_ jtwc_sh SH071964 -15.1000 140.100 -1 -14.7687 140.760 986 -15.1000 140.100 TC -15.1051 140.081 2 -14.7000 141.000 TC 50 987 10 212
1964006S13137 1964 3 SP EA AUDREY 1964-01-10 09:00:00 TS -15.3360 140.194 main 141 139 P_____P__PP_P_ SH071964 -15.6650 139.700 -1 -15.0249 140.614 986 -15.6650 139.700 TC -15.6694 139.692 2 -14.9500 140.872 TC 52 986 10 213
1964006S13137 1964 3 SP EA AUDREY 1964-01-10 11:00:00 TS -15.6038 140.003 986 bom main 153 151 P_____O__PP_P_ SH071964 -16.0312 139.430 -1 -15.2000 140.500 986 -16.0312 139.430 TC -16.0304 139.430 2 -15.1166 140.764 TC 54 986 10 215
1964006S13137 1964 3 SP EA AUDREY 1964-01-10 12:00:00 TS -15.7317 139.907 main 162 109 O_____P__OO_O_ jtwc_sh SH071964 -16.2000 139.300 -1 -15.2899 140.440 985 -16.2000 139.300 TC -16.2000 139.300 2 -15.2000 140.700 TC 55 986 9 218
1964006S13137 1964 3 SP EA AUDREY 1964-01-10 15:00:00 TS -16.0753 139.615 main 109 64 P_____P__PP_P_ SH071964 -16.6299 138.950 -1 -15.5658 140.237 985 -16.6299 138.950 TC -16.6264 138.888 2 -15.4425 140.458 TC 55 985 9 221
1964006S13137 1964 3 SP EA AUDREY 1964-01-10 18:00:00 TS -16.3957 139.315 main 64 22 O_____P__OP_O_ jtwc_sh SH071964 -17.0000 138.600 -1 -15.8453 140.010 984 -17.0000 138.600 TC -17.0102 138.482 2 -15.7000 140.200 TC 55 984 9 223
1964006S13137 1964 3 SP EA AUDREY 1964-01-10 21:00:00 TS -16.7140 139.002 main 22 0 P_____P__PP_P_ SH071964 -17.3576 138.185 -1 -16.1214 139.767 983 -17.3576 138.185 TC -17.3639 138.110 2 -15.9999 140.000 TC 55 983 9 223
1964006S13137 1964 3 SP EA AUDREY 1964-01-10 23:00:00 TS -16.9211 138.801 983 bom main 0 0 P_____O__PP_P_ SH071964 -17.5860 137.919 -1 -16.3000 139.600 983 4 -17.5860 137.919 TC -17.5892 137.895 2 -16.2031 139.870 TC 55 983 8 222
1964006S13137 1964 3 SP EA AUDREY 1964-01-11 00:00:00 TS -17.0238 138.709 main 0 0 O_____P__OO_O_ jtwc_sh SH071964 -17.7000 137.800 -1 -16.3904 139.532 983 -17.7000 137.800 TC -17.7000 137.800 2 -16.3000 139.800 TC 55 983 8 219
1964006S13137 1964 3 SP EA AUDREY 1964-01-11 03:00:00 TS -17.3341 138.451 main 0 0 P_____P__PP_P_ SH071964 -18.0574 137.497 -1 -16.6530 139.312 983 -18.0574 137.497 TC -18.0471 137.556 2 -16.5649 139.580 TC 55 983 8 218
1964006S13137 1964 3 SP EA AUDREY 1964-01-11 06:00:00 TS -17.6279 138.217 main 0 0 O_____P__OP_O_ jtwc_sh SH071964 -18.4000 137.300 -1 -16.8881 139.020 983 -18.4000 137.300 TC -18.3796 137.380 2 -16.8000 139.300 TC 55 983 7 218
1964006S13137 1964 3 SP EA AUDREY 1964-01-11 06:10:00 TS -17.6428 138.204 983 bom main 0 0 P_____O__PP_P_ SH071964 -18.4179 137.292 -1 -16.9000 139.000 983 -18.4179 137.292 TC -18.3976 137.372 2 -16.8112 139.280 TC 54 983 7 221
1964006S13137 1964 3 SP EA AUDREY 1964-01-11 09:00:00 TS -17.8802 137.990 main 0 0 P_____P__PP_P_ SH071964 -18.7074 137.212 -1 -17.0713 138.593 984 -18.7074 137.212 TC -18.6972 137.263 2 -16.9852 138.900 TC 50 984 7 219
1964006S13137 1964 3 SP EA AUDREY 1964-01-11 11:00:00 TS -18.0462 137.856 985 bom main 0 0 P_____O__PP_P_ SH071964 -18.9026 137.200 -1 -17.2000 138.300 985 -18.9026 137.200 TC -18.9008 137.215 2 -17.1189 138.624 TC 46 984 6 216
1964006S13137 1964 3 SP EA AUDREY 1964-01-11 12:00:00 TS -18.1328 137.800 main 0 0 O_____P__OO_O_ jtwc_sh SH071964 -19.0000 137.200 -1 -17.2727 138.189 985 -19.0000 137.200 TC -19.0000 137.200 2 -17.2000 138.500 TC 45 985 6 207
1964006S13137 1964 3 SP EA AUDREY 1964-01-11 15:00:00 TS -18.4188 137.655 main 0 0 P_____P__PP_P_ SH071964 -19.3075 137.185 -1 -17.5252 137.929 985 -19.3075 137.185 TC -19.2811 137.154 2 -17.5349 138.227 TC 42 985 6 202
1964006S13137 1964 3 SP EA AUDREY 1964-01-11 18:00:00 TS -18.7199 137.542 main 0 0 O_____P__OP_O_ jtwc_sh SH071964 -19.6000 137.200 -1 -17.8376 137.729 985 -19.6000 137.200 TC -19.5498 137.160 2 -17.9000 138.000 TC 40 985 6 199
1964006S13137 1964 3 SP EA AUDREY 1964-01-11 21:00:00 TS -19.0136 137.434 main 0 0 P_____P__PP_P_ SH071964 -19.8500 137.228 -1 -18.2202 137.524 985 -19.8500 137.228 TC -19.8186 137.211 2 -18.1699 137.765 TC 37 985 7 198
1964006S13137 1964 3 SP EA AUDREY 1964-01-11 23:30:00 TS -19.2867 137.343 985 bom main 0 0 P_____O__PP_P_ SH071964 -20.0562 137.284 -1 -18.6000 137.300 985 -20.0562 137.284 TC -20.0517 137.283 2 -18.4344 137.548 TC 35 985 7 198
1964006S13137 1964 3 SP EA AUDREY 1964-01-12 00:00:00 TS -19.3484 137.322 main 0 0 O_____P__OO_O_ jtwc_sh SH071964 -20.1000 137.300 -1 -18.6903 137.230 985 -20.1000 137.300 TC -20.1000 137.300 2 -18.5000 137.500 TC 35 985 9 198
1964006S13137 1964 3 SP EA AUDREY 1964-01-12 03:00:00 TS -19.7812 137.174 main 0 0 P_____P__PP_P_ SH071964 -20.3850 137.435 -1 -19.2669 136.788 985 -20.3850 137.435 TC -20.4269 137.406 2 -19.0502 137.128 TC 35 985 9 195
1964006S13137 1964 3 SP EA AUDREY 1964-01-12 05:30:00 TS -20.1402 137.092 985 bom main 0 0 P_____O__PP_P_ SH071964 -20.6454 137.573 -1 -19.7000 136.500 985 -20.6454 137.573 TC -20.7087 137.522 2 -19.5190 136.844 TC 35 985 9 192
1964006S13137 1964 3 SP EA AUDREY 1964-01-12 06:00:00 TS -20.2050 137.084 main 0 0 O_____P__OP_O_ jtwc_sh SH071964 -20.7000 137.600 -1 -19.7648 136.458 985 -20.7000 137.600 TC -20.7650 137.547 2 -19.6000 136.800 TC 35 985 7 184
1964006S13137 1964 3 SP EA AUDREY 1964-01-12 09:00:00 TS -20.5390 137.072 main 0 0 P_____P__PP_P_ SH071964 -21.0650 137.743 -1 -20.0705 136.327 987 -21.0650 137.743 TC -21.0956 137.715 2 -19.9147 136.573 TC 32 986 6 173
1964006S13137 1964 3 SP EA AUDREY 1964-01-12 11:30:00 TS -20.7914 137.159 989 bom main 0 0 P_____O__PP_P_ SH071964 -21.3505 137.872 -1 -20.3000 136.400 989 -21.3505 137.872 TC -21.3519 137.868 2 -20.1460 136.570 TC 30 987 7 160
1964006S13137 1964 3 SP EA AUDREY 1964-01-12 12:00:00 TS -20.8432 137.189 main 0 0 O_____P__OO_O_ jtwc_sh SH071964 -21.4000 137.900 -1 -20.3591 136.433 988 -21.4000 137.900 TC -21.4000 137.900 2 -20.2000 136.600 TC 30 988 8 143
1964006S13137 1964 3 SP EA AUDREY 1964-01-12 15:00:00 TS -21.1426 137.447 main 0 0 P_____P__PP_P_ SH071964 -21.6150 138.093 -1 -20.7513 136.800 988 -21.6150 138.093 TC -21.5791 137.988 2 -20.6277 137.002 TC 30 988 9 136
1964006S13137 1964 3 SP EA AUDREY 1964-01-12 18:00:00 TS -21.4563 137.822 main 0 0 O_____P__OP_O_ jtwc_sh SH071964 -21.8000 138.300 -1 -21.1948 137.375 988 -21.8000 138.300 TC -21.7423 138.104 2 -21.1000 137.600 TC 30 988 10 132
1964006S13137 1964 3 SP EA AUDREY 1964-01-12 21:00:00 TS -21.7960 138.224 main 0 0 P_____P__PP_P_ SH071964 -21.9972 138.448 -1 -21.6717 138.050 988 -21.9972 138.448 TC -21.9594 138.318 2 -21.5423 138.135 TC 30 988 11 133
1964006S13137 1964 3 SP EA AUDREY 1964-01-12 23:00:00 TS -22.0608 138.532 988 bom main 0 0 P_____O__PP_P_ SH071964 -22.1796 138.594 -1 -22.0000 138.500 988 -22.1796 138.594 TC -22.1685 138.549 2 -21.8442 138.509 TC 30 988 12 133
1964006S13137 1964 3 SP EA AUDREY 1964-01-13 00:00:00 TS -22.1935 138.686 main 0 0 O_____P__OO_O_ jtwc_sh SH071964 -22.3000 138.700 -1 -22.0610 138.616 987 -22.3000 138.700 TC -22.3000 138.700 2 -22.0000 138.700 TC 30 988 13 135
1964006S13137 1964 3 SP EA AUDREY 1964-01-13 03:00:00 TS -22.6533 139.166 main 0 0 P_____P__PP_P_ SH071964 -22.7666 139.117 -1 -22.3897 139.077 987 -22.7666 139.117 TC -22.8083 139.202 2 -22.3777 139.163 TC 30 987 15 136
1964006S13137 1964 3 SP EA AUDREY 1964-01-13 05:00:00 TS -23.1030 139.646 987 bom main 0 0 P_____O__PP_P_ SH071964 -23.1717 139.537 -1 -23.0000 139.700 987 -23.1717 139.537 TC -23.2208 139.643 2 -22.7435 139.598 TC 30 987 21 136
1964006S13137 1964 3 SP EA AUDREY 1964-01-13 06:00:00 TS -23.4011 139.965 main 0 0 O_____P__OP_O_ jtwc_sh SH071964 -23.4000 139.800 -1 -23.5606 140.192 987 -23.4000 139.800 TC -23.4461 139.898 2 -23.0000 139.900 TC 30 987 28 134
1964006S13137 1964 3 SP EA AUDREY 1964-01-13 08:00:00 TS -24.0799 140.729 987 bom main 0 0 P_____O__PP_P_ SH071964 -23.8930 140.393 -1 -24.7000 141.300 987 -23.8930 140.393 TC -23.9298 140.485 2 -23.7600 140.759 TC 30 986 30 133
1964006S13137 1964 3 SP EA AUDREY 1964-01-13 09:00:00 TS -24.4034 141.149 main 0 0 P_____P__PP_P_ SH071964 -24.1614 140.744 -1 -25.0265 141.795 986 -24.1614 140.744 TC -24.1861 140.819 2 -24.1995 141.267 TC 30 986 31 128
1964006S13137 1964 3 SP EA AUDREY 1964-01-13 11:00:00 TS -25.0330 142.049 986 bom main 0 0 P_____O__PP_P_ SH071964 -24.7193 141.548 -1 -25.5000 142.700 986 -24.7193 141.548 TC -24.7223 141.575 2 -25.0905 142.356 TC 30 986 31 128
1964006S13137 1964 3 SP EA AUDREY 1964-01-13 12:00:00 TS -25.3555 142.515 main 0 0 O_____P__OO_O_ jtwc_sh SH071964 -25.0000 142.000 -1 -25.8330 143.089 986 -25.0000 142.000 TC -25.0000 142.000 2 -25.5000 142.900 TC 30 986 31 125
1964006S13137 1964 3 SP EA AUDREY 1964-01-13 14:00:00 TS -25.9320 143.445 986 bom main 0 0 P_____O__PP_P_ SH071964 -25.5163 142.958 -1 -26.5000 143.900 986 -25.5163 142.958 TC -25.5100 142.917 2 -26.1597 143.845 TC 30 985 31 123
1964006S13137 1964 3 SP EA AUDREY 1964-01-13 15:00:00 TS -26.2000 143.955 main 0 0 P_____P__PP_P_ SH071964 -25.7765 143.483 -1 -26.7638 144.423 985 -25.7765 143.483 TC -25.7742 143.425 2 -26.4517 144.316 TC 30 985 33 119
1964006S13137 1964 3 SP EA AUDREY 1964-01-13 17:00:00 TS -26.7137 145.047 985 bom main 0 0 P_____O__PP_P_ SH071964 -26.3153 144.608 -1 -27.2000 145.600 985 -26.3153 144.608 TC -26.3227 144.526 2 -26.9700 145.287 TC 30 985 33 117
1964006S13137 1964 3 SP EA AUDREY 1964-01-13 18:00:00 TS -26.9605 145.611 main 0 0 O_____P__OP_O_ jtwc_sh SH071964 -26.6000 145.200 -1 -27.3552 146.154 984 -26.6000 145.200 TC -26.6078 145.114 2 -27.2000 145.800 TC 30 985 34 115
1964006S13137 1964 3 SP EA AUDREY 1964-01-13 21:00:00 TS -27.6629 147.349 main 0 0 P_____P__PP_P_ SH071964 -27.4949 147.015 -1 -27.7766 147.843 984 -27.4949 147.015 TC -27.5115 146.995 2 -27.7008 147.426 TC 32 984 35 115
1964006S13137 1964 3 SP EA AUDREY 1964-01-13 23:00:00 TS -28.2017 148.598 984 bom main 0 0 P_____O__PP_P_ SH071964 -28.1509 148.320 -1 -28.3000 149.100 984 -28.1509 148.320 TC -28.1600 148.322 2 -28.0611 148.639 TC 34 984 38 117
1964006S13137 1964 3 SP EA AUDREY 1964-01-14 00:00:00 TS -28.5280 149.242 main 0 0 O_____P__OO_O_ jtwc_sh SH071964 -28.5000 149.000 -1 -28.7719 149.772 984 -28.5000 149.000 TC -28.5000 149.000 2 -28.3000 149.300 TC 35 984 42 120
1964006S13137 1964 3 SP EA AUDREY 1964-01-14 02:00:00 TS -29.2686 150.673 984 bom main 0 0 P_____O__PP_P_ SH071964 -29.2342 150.426 -1 -29.7000 151.300 984 -29.2342 150.426 TC -29.2101 150.388 2 -28.9645 150.822 TC 40 985 44 120
1964006S13137 1964 3 SP EA AUDREY 1964-01-14 03:00:00 TS -29.6267 151.453 main 0 0 P_____P__PP_P_ SH071964 -29.6191 151.164 -1 -29.9653 152.196 986 -29.6191 151.164 TC -29.5807 151.108 2 -29.3492 151.631 TC 42 986 45 118
1964006S13137 1964 3 SP EA AUDREY 1964-01-14 04:00:00 TS -29.9761 152.196 988 bom main 0 0 P_____O__PP_P_ SH071964 -30.0106 151.911 -1 -30.2000 153.100 988 -30.0106 151.911 TC -29.9594 151.841 2 -29.7560 152.444 TC 44 986 44 120
1964006S13137 1964 3 SP EA AUDREY 1964-01-14 06:00:00 TS -30.7481 153.661 main 66 66 O_____P__OP_O_ jtwc_sh SH071964 -30.8000 153.400 -1 -30.8638 154.689 989 -30.8000 153.400 TC -30.7345 153.329 2 -30.6000 154.000 TC 50 988 43 122
1964006S13137 1964 3 SP EA AUDREY 1964-01-14 08:00:00 TS -31.5306 155.036 990 bom main 185 197 P_____O__PP_P_ SH071964 -31.5642 154.867 -1 -31.7000 156.100 990 -31.5642 154.867 TC -31.5233 154.823 2 -31.4282 155.322 TC 51 42 124
1964006S13137 1964 3 SP EA AUDREY 1964-01-14 09:00:00 TS -31.9164 155.671 main 261 261 P________PP_P_ SH071964 -31.9474 155.592 -1 -31.9474 155.592 TC -31.9193 155.563 2 -31.8514 155.937 TC 52 41 125
1964006S13137 1964 3 SP EA AUDREY 1964-01-14 12:00:00 TS -33.1000 157.700 main 481 481 O________OO_O_ jtwc_sh SH071964 -33.1000 157.700 -1 -33.1000 157.700 TC -33.1000 157.700 2 -33.1000 157.700 TC 55 41 125
1964006S13137 1964 3 SP EA AUDREY 1964-01-14 15:00:00 TS -34.2417 159.665 main 695 695 P________PP_P_ SH071964 -34.2548 159.729 -1 -34.2548 159.729 TC -34.2454 159.687 2 -34.2120 159.514 TC 50 39 126
1964006S13137 1964 3 SP MM AUDREY 1964-01-14 18:00:00 TS -35.3725 161.513 main 893 875 O________OP_O_ jtwc_sh SH071964 -35.4000 161.600 -1 -35.4000 161.600 TC -35.3901 161.554 2 -35.3000 161.300 TC 45 37 127
1964006S13137 1964 3 SP MM AUDREY 1964-01-14 21:00:00 TS -36.5011 163.288 main 868 732 P________PP_P_ SH071964 -36.5123 163.344 -1 -36.5123 163.344 TC -36.5150 163.295 2 -36.4649 163.168 TC 42 35 129
1964006S13137 1964 3 SP MM AUDREY 1964-01-15 00:00:00 TS -37.6000 164.900 main 718 556 O________OO_O_ jtwc_sh SH071964 -37.6000 164.900 -1 -37.6000 164.900 TC -37.6000 164.900 2 -37.6000 164.900 TC 40 32 132
1964006S13137 1964 3 SP MM AUDREY 1964-01-15 03:00:00 TS -38.6606 166.326 main 551 407 P________PP_P_ SH071964 -38.6766 166.300 -1 -38.6766 166.300 TC -38.6634 166.381 2 -38.6257 166.325 TC 37 30 134
1964006S13137 1964 3 SP MM AUDREY 1964-01-15 06:00:00 TS -39.6718 167.632 main 402 254 O________OP_O_ jtwc_sh SH071964 -39.7000 167.600 -1 -39.7000 167.600 TC -39.6873 167.729 2 -39.6000 167.600 TC 35 28 134
1964006S13137 1964 3 SP MM AUDREY 1964-01-15 09:00:00 TS -40.6344 168.962 main 247 112 P________PP_P_ SH071964 -40.6506 168.946 -1 -40.6506 168.946 TC -40.6435 169.012 2 -40.5931 168.945 TC 35 27 132
1964006S13137 1964 3 SP MM AUDREY 1964-01-15 12:00:00 TS -41.5000 170.300 main 104 0 O________OO_O_ jtwc_sh SH071964 -41.5000 170.300 -1 -41.5000 170.300 TC -41.5000 170.300 2 -41.5000 170.300 TC 35 26 129
1964006S13137 1964 3 SP MM AUDREY 1964-01-15 15:00:00 TS -42.2535 171.678 main 0 0 P________PP_P_ SH071964 -42.2582 171.688 -1 -42.2582 171.688 TC -42.2319 171.648 2 -42.2657 171.688 TC 32 25 124
1964006S13137 1964 3 SP MM AUDREY 1964-01-15 18:00:00 TS -42.8892 173.089 main 0 0 O________OP_O_ jtwc_sh SH071964 -42.9000 173.100 -1 -42.9000 173.100 TC -42.8567 173.057 2 -42.9000 173.100 TC 30 24 119
1964006S13137 1964 3 SP MM AUDREY 1964-01-15 21:00:00 TS -43.4255 174.532 main 106 106 P________PP_P_ SH071964 -43.4338 174.538 -1 -43.4338 174.538 TC -43.4031 174.511 2 -43.4313 174.538 TC 32 23 116
1964006S13137 1964 3 SP MM AUDREY 1964-01-16 00:00:00 TS -43.9000 176.000 main 231 O________OO_O_ jtwc_sh SH071964 -43.9000 176.000 -1 -43.9000 176.000 TC -43.9000 176.000 2 -43.9000 176.000 TC 35 23 114

Digital Typhoon Data and Search

About IBTrACS Database

This database is a web-friendly format of International Best Track Archive for Climate Stewardship (IBTrACS), a global best track data archive curated by NOAA dating back to 1842.

Updated: 2021-10-08